ADDS TAF Data INFO
IDs: Format: Raw Decoded Include METARs

Data at: 1308 UTC 22 Nov 2017

KAMA 221253Z 22006KT 10SM CLR M02/M04 A3038 RMK AO2 SLP296 T10221044

KAMA 221120Z 2212/2312 22008KT P6SM BKN250
  FM221600 23013KT P6SM BKN250
  FM230400 27008KT P6SM BKN250